Hauptseite
METAR-TAF:

METAR-TAF

Flughäfen :

Riad, Saudi-Arabien

Breite: 24-43N, Länge: 046-44E, Höhe: 635 m

Beobachtung

Neuester Wetterbericht von vor 9 Stunden und 53 Minuten, um 16:00 UTC
Wind 10 kt aus Nord
Temperatur 39°C
Luftfeuchtigkeit 8%
Luftdruck 1009 hPa
Sichtweite 10 km oder mehr
keine Wolken unter 1500 m und keine Kumulonimbus oder Gewitterwolken

METAR: OERY 061600Z 01010KT CAVOK 39/M01 Q1009

Zeit: 04:53 (01:53 UTC)

Prognose

Neuester Wetterbericht von vor 14 Stunden und 53 Minuten, um 11:00 UTC
Gültige Prognose vom 06 um 12 UTC bis 07 um 18 UTC
Wind 14 kt aus Nord
Sichtweite: 7000 m
Zeitweise
vom 06 um 12 UTC bis 06 um 18 UTC
Sichtweite: 4000 m
Staubtreiben
Übergehend zu
vom 06 um 18 UTC bis 06 um 20 UTC
Wind 3 kt aus unterschiedlichen Richtungen

TAF: OERY 061100Z 0612/0718 36014KT 7000 NSC TEMPO 0612/0618 4000 BLDU BECMG 0618/0620 VRB03KT

Wetterbeobachtungen und Prognosen von mehr als 4000 Flughäfen (METAR und TAF Bericht).

Die verfügbaren Stationen werden durch gelbe und rote Markierungen auf der Karte dargestellt.

Führen Sie die Maus auf sie, um den Namen der Station zu sehen.

Darauf klicken, um die Beobachtung von Wetterbeobachtungen und Prognosen zu sehen.

Um die Karte zu ändern : klicken Sie auf den grünen Tasten mit einem schwarzen Kreuz Zum Vergrößern, auf den grünen Button mit einem Gedankenstrich zu verkleinern, oder auf die grünen Pfeile für benachbarte Karten.


METAR-TAF: